createdAt,value
2019-04-20T00:00:08.151Z,1012.18
2019-04-20T00:01:05.404Z,1012.24
2019-04-20T00:02:12.110Z,1012.21
2019-04-20T00:03:05.760Z,1012.18
2019-04-20T00:04:05.443Z,1012.20
2019-04-20T00:05:05.309Z,1012.21
2019-04-20T00:06:04.291Z,1012.19
2019-04-20T00:07:04.305Z,1012.25
2019-04-20T00:08:09.003Z,1012.22
2019-04-20T00:09:12.310Z,1012.26
2019-04-20T00:10:10.908Z,1012.25
2019-04-20T00:11:12.695Z,1012.23
2019-04-20T00:12:12.724Z,1012.22
2019-04-20T00:13:16.706Z,1012.26
2019-04-20T00:14:10.959Z,1012.18
2019-04-20T00:15:05.195Z,1012.24
2019-04-20T00:16:06.227Z,1012.14
2019-04-20T00:17:05.178Z,1012.18
2019-04-20T00:18:06.450Z,1012.17
2019-04-20T00:19:06.786Z,1012.19
2019-04-20T00:20:11.635Z,1012.20
2019-04-20T00:21:10.985Z,1012.17
2019-04-20T00:22:09.847Z,1012.15
2019-04-20T00:23:05.941Z,1012.18
2019-04-20T00:24:10.326Z,1012.20
2019-04-20T00:25:10.531Z,1012.20
2019-04-20T00:26:15.764Z,1012.09
2019-04-20T00:27:26.041Z,1012.13
2019-04-20T00:28:24.082Z,1012.11
2019-04-20T00:29:21.345Z,1012.10
2019-04-20T00:30:28.236Z,1012.17
2019-04-20T00:31:22.224Z,1012.10
2019-04-20T00:32:14.409Z,1012.13
2019-04-20T00:33:21.974Z,1012.14
2019-04-20T00:34:13.877Z,1012.06
2019-04-20T00:35:06.210Z,1012.09
2019-04-20T00:36:05.279Z,1012.09
2019-04-20T00:37:05.245Z,1012.05
2019-04-20T00:38:04.017Z,1012.07
2019-04-20T00:39:08.111Z,1012.10
2019-04-20T00:40:05.757Z,1012.09
2019-04-20T00:41:07.525Z,1012.05
2019-04-20T00:42:09.609Z,1012.02
2019-04-20T00:43:04.907Z,1011.99
2019-04-20T00:44:12.258Z,1012.05
2019-04-20T00:45:14.113Z,1012.05
2019-04-20T00:46:08.242Z,1011.99
2019-04-20T00:47:18.087Z,1011.98
2019-04-20T00:48:13.592Z,1012.02
2019-04-20T00:49:20.718Z,1012.01
2019-04-20T00:50:25.607Z,1012.03
2019-04-20T00:51:24.992Z,1012.03
2019-04-20T00:52:29.218Z,1012.00
2019-04-20T00:53:13.587Z,1012.01
2019-04-20T00:54:05.647Z,1011.97
2019-04-20T00:55:04.189Z,1012.00
2019-04-20T00:56:03.763Z,1012.01
2019-04-20T00:57:13.294Z,1011.96
2019-04-20T00:58:11.789Z,1011.96
2019-04-20T00:59:18.157Z,1011.93
2019-04-20T01:00:21.543Z,1011.98
2019-04-20T01:01:24.865Z,1011.98
2019-04-20T01:02:21.006Z,1011.99
2019-04-20T01:03:20.753Z,1012.03
2019-04-20T01:04:25.490Z,1012.03
2019-04-20T01:05:22.970Z,1012.05
2019-04-20T01:06:23.385Z,1012.04
2019-04-20T01:07:19.318Z,1012.00
2019-04-20T01:08:06.531Z,1012.02
2019-04-20T01:09:03.658Z,1012.03
2019-04-20T01:10:05.040Z,1012.02
2019-04-20T01:11:04.232Z,1012.07
2019-04-20T01:12:11.865Z,1012.03
2019-04-20T01:13:08.666Z,1012.04
2019-04-20T01:14:09.374Z,1012.02
2019-04-20T01:15:07.812Z,1011.98
2019-04-20T01:16:08.726Z,1012.02
2019-04-20T01:17:11.696Z,1012.00
2019-04-20T01:18:04.533Z,1011.97
2019-04-20T01:19:03.561Z,1012.00
2019-04-20T01:20:03.528Z,1011.96
2019-04-20T01:21:06.568Z,1012.06
2019-04-20T01:22:07.883Z,1012.02
2019-04-20T01:23:10.100Z,1012.00
2019-04-20T01:24:07.845Z,1011.97
2019-04-20T01:25:09.911Z,1012.00
2019-04-20T01:26:09.518Z,1012.06
2019-04-20T01:27:08.116Z,1012.01
2019-04-20T01:28:19.310Z,1012.03
2019-04-20T01:29:18.665Z,1011.93
2019-04-20T01:30:14.647Z,1011.99
2019-04-20T01:31:17.454Z,1011.99
2019-04-20T01:32:15.104Z,1012.03
2019-04-20T01:33:15.996Z,1012.09
2019-04-20T01:34:19.587Z,1012.03
2019-04-20T01:35:22.241Z,1012.06
2019-04-20T01:36:25.492Z,1012.03
2019-04-20T01:37:18.021Z,1012.10
2019-04-20T01:38:20.922Z,1012.06
2019-04-20T01:39:16.027Z,1012.11
2019-04-20T01:40:06.069Z,1012.11
2019-04-20T01:41:03.435Z,1012.15
2019-04-20T01:42:04.453Z,1012.08
2019-04-20T01:43:03.757Z,1012.11
2019-04-20T01:44:03.262Z,1012.15
2019-04-20T01:45:12.643Z,1012.07
2019-04-20T01:46:10.143Z,1012.08
2019-04-20T01:47:06.581Z,1012.07
2019-04-20T01:48:04.731Z,1012.00
2019-04-20T01:49:09.160Z,1012.04
2019-04-20T01:50:10.344Z,1012.03
2019-04-20T01:51:11.884Z,1012.02
2019-04-20T01:52:13.876Z,1012.02
2019-04-20T01:53:16.431Z,1012.01
2019-04-20T01:54:21.349Z,1011.99
2019-04-20T01:55:24.475Z,1012.00
2019-04-20T01:56:17.104Z,1012.06
2019-04-20T01:57:12.867Z,1012.00
2019-04-20T01:58:25.397Z,1012.03
2019-04-20T01:59:19.955Z,1011.98
2019-04-20T02:00:13.218Z,1012.02
2019-04-20T02:01:09.738Z,1012.03
2019-04-20T02:02:09.406Z,1012.04
2019-04-20T02:03:05.580Z,1012.07
2019-04-20T02:04:04.675Z,1012.10
2019-04-20T02:05:10.269Z,1012.10
2019-04-20T02:06:11.071Z,1012.08
2019-04-20T02:07:06.703Z,1012.10
2019-04-20T02:08:08.753Z,1012.07
2019-04-20T02:09:10.140Z,1012.10
2019-04-20T02:10:08.326Z,1012.06
2019-04-20T02:11:06.218Z,1012.08
2019-04-20T02:12:10.389Z,1012.06
2019-04-20T02:13:06.549Z,1012.13
2019-04-20T02:14:06.708Z,1012.04
2019-04-20T02:15:06.099Z,1012.10
2019-04-20T02:16:11.463Z,1012.09
2019-04-20T02:17:14.636Z,1012.16
2019-04-20T02:18:19.114Z,1012.10
2019-04-20T02:19:22.103Z,1012.07
2019-04-20T02:20:23.463Z,1012.08
2019-04-20T02:21:19.650Z,1012.06
2019-04-20T02:22:18.301Z,1012.10
2019-04-20T02:23:17.589Z,1012.07
2019-04-20T02:24:06.363Z,1012.12
2019-04-20T02:25:03.948Z,1012.08
2019-04-20T02:26:03.017Z,1012.10
2019-04-20T02:27:04.019Z,1012.10
2019-04-20T02:28:22.754Z,1012.09
2019-04-20T02:29:30.598Z,1012.06
2019-04-20T02:31:45.565Z,1012.06
2019-04-20T02:32:29.973Z,1012.02
2019-04-20T02:34:44.707Z,1012.05
2019-04-20T02:35:40.364Z,1012.06
2019-04-20T02:36:55.664Z,1012.03
2019-04-20T02:38:54.145Z,1012.08
2019-04-20T02:41:44.854Z,1012.04
2019-04-20T02:43:49.755Z,1012.01
2019-04-20T02:44:42.598Z,1012.04
2019-04-20T02:46:40.925Z,1011.95
2019-04-20T02:48:29.895Z,1011.94
2019-04-20T02:49:44.989Z,1011.98
2019-04-20T02:50:38.385Z,1011.94
2019-04-20T02:51:40.985Z,1011.96
2019-04-20T02:52:38.086Z,1011.98
2019-04-20T02:53:41.558Z,1011.91
2019-04-20T02:54:54.892Z,1011.95
2019-04-20T02:56:41.850Z,1012.01
2019-04-20T02:57:47.394Z,1011.96
2019-04-20T02:58:34.726Z,1011.91
2019-04-20T03:00:31.366Z,1011.94
2019-04-20T03:01:25.028Z,1011.96
2019-04-20T03:02:18.365Z,1011.95
2019-04-20T03:03:17.262Z,1011.96
2019-04-20T03:04:10.723Z,1011.94
2019-04-20T03:05:16.374Z,1011.94
2019-04-20T03:06:17.266Z,1011.90
2019-04-20T03:07:15.252Z,1011.96
2019-04-20T03:08:22.169Z,1011.92
2019-04-20T03:09:29.719Z,1011.93
2019-04-20T03:10:25.078Z,1011.96
2019-04-20T03:11:29.464Z,1011.90
2019-04-20T03:12:28.865Z,1011.99
2019-04-20T03:13:25.441Z,1011.96
2019-04-20T03:14:21.771Z,1011.99
2019-04-20T03:15:30.292Z,1011.97
2019-04-20T03:16:20.449Z,1011.99
2019-04-20T03:17:29.807Z,1011.93
2019-04-20T03:18:25.555Z,1011.98
2019-04-20T03:19:20.711Z,1011.93
2019-04-20T03:20:31.996Z,1011.98
2019-04-20T03:21:24.908Z,1011.95
2019-04-20T03:22:29.200Z,1011.98
2019-04-20T03:23:30.010Z,1011.97
2019-04-20T03:24:35.172Z,1011.98
2019-04-20T03:25:23.805Z,1011.92
2019-04-20T03:26:21.330Z,1011.99
2019-04-20T03:27:18.862Z,1011.95
2019-04-20T03:28:28.005Z,1011.93
2019-04-20T03:29:16.062Z,1011.94
2019-04-20T03:31:03.985Z,1011.92
2019-04-20T03:31:41.066Z,1011.96
2019-04-20T03:32:50.058Z,1011.94
2019-04-20T03:33:43.464Z,1011.93
2019-04-20T03:35:29.769Z,1011.95
2019-04-20T03:36:49.546Z,1011.93
2019-04-20T03:37:34.592Z,1011.96
2019-04-20T03:38:21.943Z,1011.97
2019-04-20T03:39:25.911Z,1012.00
2019-04-20T03:40:19.225Z,1011.99
2019-04-20T03:41:14.816Z,1012.02
2019-04-20T03:42:05.684Z,1011.95
2019-04-20T03:43:02.682Z,1011.92
2019-04-20T03:44:08.960Z,1011.94
2019-04-20T03:45:07.551Z,1011.94
2019-04-20T03:46:07.820Z,1011.93
2019-04-20T03:47:08.859Z,1011.95
2019-04-20T03:48:12.643Z,1011.94
2019-04-20T03:49:20.069Z,1011.94
2019-04-20T03:50:24.997Z,1011.88
2019-04-20T03:51:30.619Z,1011.99
2019-04-20T03:52:24.614Z,1011.87
2019-04-20T03:53:23.118Z,1011.92
2019-04-20T03:54:22.218Z,1011.93
2019-04-20T03:55:24.374Z,1011.96
2019-04-20T03:56:30.979Z,1011.95
2019-04-20T03:57:26.578Z,1011.90
2019-04-20T03:58:24.169Z,1011.92
2019-04-20T03:59:16.092Z,1011.92
2019-04-20T04:00:21.880Z,1011.96
2019-04-20T04:01:27.366Z,1011.89
2019-04-20T04:02:35.436Z,1011.95
2019-04-20T04:03:29.419Z,1011.94
2019-04-20T04:04:29.845Z,1011.96
2019-04-20T04:05:19.382Z,1011.99
2019-04-20T04:06:16.265Z,1011.96
2019-04-20T04:07:15.563Z,1011.98
2019-04-20T04:08:12.268Z,1011.92
2019-04-20T04:09:18.798Z,1011.93
2019-04-20T04:10:15.983Z,1011.98
2019-04-20T04:11:21.084Z,1011.95
2019-04-20T04:12:12.228Z,1011.96
2019-04-20T04:13:03.443Z,1012.02
2019-04-20T04:14:02.973Z,1011.95
2019-04-20T04:15:02.235Z,1012.01
2019-04-20T04:16:06.714Z,1011.95
2019-04-20T04:17:04.606Z,1011.99
2019-04-20T04:18:07.378Z,1011.98
2019-04-20T04:19:12.798Z,1012.02
2019-04-20T04:20:08.541Z,1012.02
2019-04-20T04:21:08.395Z,1011.92
2019-04-20T04:22:15.895Z,1012.04
2019-04-20T04:23:19.116Z,1011.98
2019-04-20T04:24:17.035Z,1012.02
2019-04-20T04:25:17.009Z,1012.00
2019-04-20T04:26:24.567Z,1012.01
2019-04-20T04:27:18.568Z,1012.06
2019-04-20T04:28:22.316Z,1012.04
2019-04-20T04:29:26.861Z,1012.00
2019-04-20T04:30:20.683Z,1012.10
2019-04-20T04:31:27.847Z,1012.07
2019-04-20T04:32:33.142Z,1012.09
2019-04-20T04:34:25.034Z,1012.10
2019-04-20T04:35:16.985Z,1012.18
2019-04-20T04:36:17.693Z,1012.10
2019-04-20T04:37:20.538Z,1012.17
2019-04-20T04:38:29.641Z,1012.15
2019-04-20T04:39:25.207Z,1012.16
2019-04-20T04:40:32.400Z,1012.11
2019-04-20T04:41:24.289Z,1012.14
2019-04-20T04:42:22.288Z,1012.18
2019-04-20T04:43:22.211Z,1012.17
2019-04-20T04:44:17.759Z,1012.12
2019-04-20T04:45:07.728Z,1012.15
2019-04-20T04:46:03.930Z,1012.09
2019-04-20T04:47:05.218Z,1012.15
2019-04-20T04:48:06.726Z,1012.15
2019-04-20T04:49:13.295Z,1012.11
2019-04-20T04:50:09.533Z,1012.12
2019-04-20T04:51:10.398Z,1012.12
2019-04-20T04:52:07.932Z,1012.09
2019-04-20T04:53:08.010Z,1012.07
2019-04-20T04:54:15.110Z,1012.14
2019-04-20T04:55:10.888Z,1012.16
2019-04-20T04:56:08.774Z,1012.13
2019-04-20T04:57:03.322Z,1012.15
2019-04-20T04:58:02.307Z,1012.14
2019-04-20T04:59:02.362Z,1012.14
2019-04-20T05:00:01.638Z,1012.17
2019-04-20T05:01:06.615Z,1012.18
2019-04-20T05:02:03.444Z,1012.19
2019-04-20T05:03:13.469Z,1012.20
2019-04-20T05:04:23.006Z,1012.19
2019-04-20T05:05:23.850Z,1012.21
2019-04-20T05:06:18.695Z,1012.25
2019-04-20T05:07:16.046Z,1012.17
2019-04-20T05:08:12.795Z,1012.18
2019-04-20T05:09:08.056Z,1012.23
2019-04-20T05:10:03.443Z,1012.22
2019-04-20T05:11:01.093Z,1012.21
2019-04-20T05:12:07.150Z,1012.26
2019-04-20T05:13:02.939Z,1012.18
2019-04-20T05:14:06.733Z,1012.24
2019-04-20T05:15:10.151Z,1012.19
2019-04-20T05:16:15.831Z,1012.26
2019-04-20T05:17:20.634Z,1012.21
2019-04-20T05:18:27.179Z,1012.29
2019-04-20T05:19:23.511Z,1012.21
2019-04-20T05:20:18.072Z,1012.27
2019-04-20T05:21:20.729Z,1012.27
2019-04-20T05:22:26.192Z,1012.29
2019-04-20T05:23:16.274Z,1012.22
2019-04-20T05:24:19.307Z,1012.30
2019-04-20T05:25:18.433Z,1012.28
2019-04-20T05:26:25.638Z,1012.32
2019-04-20T05:27:24.650Z,1012.35
2019-04-20T05:28:16.802Z,1012.28
2019-04-20T05:29:10.532Z,1012.35
2019-04-20T05:30:01.914Z,1012.31
2019-04-20T05:31:03.445Z,1012.30
2019-04-20T05:32:07.901Z,1012.35
2019-04-20T05:33:08.060Z,1012.36
2019-04-20T05:34:26.059Z,1012.38
2019-04-20T05:35:24.094Z,1012.37
2019-04-20T05:36:23.397Z,1012.38
2019-04-20T05:37:27.486Z,1012.42
2019-04-20T05:38:32.684Z,1012.44
2019-04-20T05:39:29.809Z,1012.37
2019-04-20T05:40:22.282Z,1012.36
2019-04-20T05:41:17.420Z,1012.32
2019-04-20T05:42:28.456Z,1012.33
2019-04-20T05:43:20.569Z,1012.30
2019-04-20T05:44:19.316Z,1012.37
2019-04-20T05:45:18.244Z,1012.30
2019-04-20T05:46:25.309Z,1012.33
2019-04-20T05:47:21.778Z,1012.40
2019-04-20T05:48:18.576Z,1012.33
2019-04-20T05:49:22.032Z,1012.40
2019-04-20T05:50:23.402Z,1012.34
2019-04-20T05:51:26.802Z,1012.35
2019-04-20T05:52:39.122Z,1012.38
2019-04-20T05:53:27.642Z,1012.33
2019-04-20T05:54:23.389Z,1012.39
2019-04-20T05:55:20.957Z,1012.40
2019-04-20T05:56:29.275Z,1012.42
2019-04-20T05:57:27.705Z,1012.40
2019-04-20T05:58:22.247Z,1012.37
2019-04-20T05:59:23.425Z,1012.54
2019-04-20T06:00:32.121Z,1012.48
2019-04-20T06:01:25.053Z,1012.50
2019-04-20T06:02:25.049Z,1012.42
2019-04-20T06:03:20.336Z,1012.43
2019-04-20T06:04:27.963Z,1012.39
2019-04-20T06:05:25.270Z,1012.48
2019-04-20T06:06:25.991Z,1012.46
2019-04-20T06:07:25.265Z,1012.45
2019-04-20T06:08:32.079Z,1012.46
2019-04-20T06:09:24.069Z,1012.45
2019-04-20T06:10:27.415Z,1012.48
2019-04-20T06:11:23.481Z,1012.47
2019-04-20T06:12:20.086Z,1012.42
2019-04-20T06:13:17.372Z,1012.39
2019-04-20T06:14:10.203Z,1012.44
2019-04-20T06:15:15.385Z,1012.48
2019-04-20T06:16:18.746Z,1012.35
2019-04-20T06:17:23.849Z,1012.36
2019-04-20T06:18:17.676Z,1012.46
2019-04-20T06:19:36.917Z,1012.41
2019-04-20T06:20:20.243Z,1012.43
2019-04-20T06:21:32.324Z,1012.47
2019-04-20T06:22:26.812Z,1012.45
2019-04-20T06:23:24.583Z,1012.50
2019-04-20T06:24:24.953Z,1012.46
2019-04-20T06:25:40.940Z,1012.45
2019-04-20T06:27:21.540Z,1012.51
2019-04-20T06:28:18.488Z,1012.47
2019-04-20T06:29:18.326Z,1012.45
2019-04-20T06:30:19.178Z,1012.45
2019-04-20T06:31:28.193Z,1012.35
2019-04-20T06:32:28.645Z,1012.43
2019-04-20T06:33:33.737Z,1012.48
2019-04-20T06:35:32.441Z,1012.45
2019-04-20T06:36:29.421Z,1012.49
2019-04-20T06:37:23.545Z,1012.46
2019-04-20T06:38:46.567Z,1012.47
2019-04-20T06:39:37.002Z,1012.49
2019-04-20T06:40:36.542Z,1012.51
2019-04-20T06:41:33.060Z,1012.45
2019-04-20T06:42:21.558Z,1012.48
2019-04-20T06:43:29.799Z,1012.49
2019-04-20T06:44:35.684Z,1012.44
2019-04-20T06:45:28.254Z,1012.44
2019-04-20T06:46:22.696Z,1012.41
2019-04-20T06:47:24.487Z,1012.48
2019-04-20T06:48:30.541Z,1012.42
2019-04-20T06:50:18.618Z,1012.44
2019-04-20T06:51:23.722Z,1012.44
2019-04-20T06:52:34.287Z,1012.41
2019-04-20T06:53:28.518Z,1012.35
2019-04-20T06:54:14.843Z,1012.40
2019-04-20T06:55:20.018Z,1012.44
2019-04-20T06:56:24.770Z,1012.42
2019-04-20T06:57:29.165Z,1012.40
2019-04-20T06:58:36.420Z,1012.43
2019-04-20T06:59:29.084Z,1012.43
2019-04-20T07:00:18.235Z,1012.43
2019-04-20T07:01:17.158Z,1012.39
2019-04-20T07:03:37.511Z,1012.40
2019-04-20T07:04:38.741Z,1012.41
2019-04-20T07:05:22.353Z,1012.34
2019-04-20T07:06:35.269Z,1012.38
2019-04-20T07:07:24.045Z,1012.36
2019-04-20T07:08:35.088Z,1012.35
2019-04-20T07:09:32.454Z,1012.31
2019-04-20T07:10:30.229Z,1012.35
2019-04-20T07:11:25.106Z,1012.32
2019-04-20T07:12:17.065Z,1012.31
2019-04-20T07:13:15.523Z,1012.32
2019-04-20T07:14:06.598Z,1012.33
2019-04-20T07:15:19.940Z,1012.38
2019-04-20T07:16:21.316Z,1012.33
2019-04-20T07:17:33.432Z,1012.37
2019-04-20T07:18:23.208Z,1012.39
2019-04-20T07:19:18.988Z,1012.39
2019-04-20T07:20:19.459Z,1012.38
2019-04-20T07:21:37.798Z,1012.43
2019-04-20T07:23:26.883Z,1012.41
2019-04-20T07:24:24.920Z,1012.39
2019-04-20T07:25:26.291Z,1012.38
2019-04-20T07:26:22.269Z,1012.36
2019-04-20T07:27:25.901Z,1012.35
2019-04-20T07:28:29.297Z,1012.43
2019-04-20T07:29:30.111Z,1012.41
2019-04-20T07:30:19.369Z,1012.45
2019-04-20T07:31:18.910Z,1012.45
2019-04-20T07:32:16.371Z,1012.45
2019-04-20T07:33:21.487Z,1012.53
2019-04-20T07:34:22.422Z,1012.53
2019-04-20T07:35:21.687Z,1012.47
2019-04-20T07:36:28.441Z,1012.41
2019-04-20T07:38:30.925Z,1012.41
2019-04-20T07:39:22.954Z,1012.43
2019-04-20T07:40:21.652Z,1012.43
2019-04-20T07:41:26.217Z,1012.39
2019-04-20T07:42:24.281Z,1012.45
2019-04-20T07:43:22.219Z,1012.40
2019-04-20T07:44:27.561Z,1012.43
2019-04-20T07:45:28.396Z,1012.40
2019-04-20T07:46:35.188Z,1012.50
2019-04-20T07:47:31.897Z,1012.44
2019-04-20T07:48:20.914Z,1012.47
2019-04-20T07:49:22.455Z,1012.43
2019-04-20T07:50:17.467Z,1012.42
2019-04-20T07:51:09.158Z,1012.45
2019-04-20T07:52:01.683Z,1012.38
2019-04-20T07:53:18.783Z,1012.43
2019-04-20T07:54:31.640Z,1012.37
2019-04-20T07:56:25.546Z,1012.35
2019-04-20T07:57:21.542Z,1012.37
2019-04-20T07:58:10.811Z,1012.35
2019-04-20T07:59:13.970Z,1012.34
2019-04-20T08:00:27.799Z,1012.40
2019-04-20T08:01:31.679Z,1012.42
2019-04-20T08:02:26.791Z,1012.41
2019-04-20T08:03:22.252Z,1012.32
2019-04-20T08:04:17.456Z,1012.35
2019-04-20T08:05:18.241Z,1012.29
2019-04-20T08:06:07.521Z,1012.35
2019-04-20T08:07:05.825Z,1012.35
2019-04-20T08:08:17.937Z,1012.32
2019-04-20T08:09:16.079Z,1012.31
2019-04-20T08:10:05.837Z,1012.30
2019-04-20T08:11:15.316Z,1012.28
2019-04-20T08:12:29.288Z,1012.36
2019-04-20T08:13:23.967Z,1012.36
2019-04-20T08:14:25.725Z,1012.36
2019-04-20T08:15:32.234Z,1012.40
2019-04-20T08:16:24.312Z,1012.41
2019-04-20T08:17:48.359Z,1012.32
2019-04-20T08:18:27.956Z,1012.34
2019-04-20T08:19:16.147Z,1012.38
2019-04-20T08:20:23.417Z,1012.34
2019-04-20T08:21:23.396Z,1012.38
2019-04-20T08:22:19.804Z,1012.32
2019-04-20T08:23:23.586Z,1012.33
2019-04-20T08:24:17.614Z,1012.37
2019-04-20T08:25:14.932Z,1012.28
2019-04-20T08:26:09.040Z,1012.40
2019-04-20T08:27:04.593Z,1012.38
2019-04-20T08:28:01.514Z,1012.38
2019-04-20T08:29:03.814Z,1012.28
2019-04-20T08:30:21.560Z,1012.33
2019-04-20T08:31:14.169Z,1012.34
2019-04-20T08:32:17.827Z,1012.31
2019-04-20T08:33:20.894Z,1012.26
2019-04-20T08:34:27.913Z,1012.34
2019-04-20T08:35:28.009Z,1012.26
2019-04-20T08:36:25.729Z,1012.33
2019-04-20T08:37:18.584Z,1012.31
2019-04-20T08:38:55.961Z,1012.26
2019-04-20T08:39:37.646Z,1012.33
2019-04-20T08:40:19.796Z,1012.27
2019-04-20T08:41:17.986Z,1012.25
2019-04-20T08:42:16.453Z,1012.26
2019-04-20T08:43:29.889Z,1012.26
2019-04-20T08:44:42.729Z,1012.26
2019-04-20T08:45:23.684Z,1012.24
2019-04-20T08:46:20.544Z,1012.24
2019-04-20T08:47:27.363Z,1012.22
2019-04-20T08:48:26.264Z,1012.20
2019-04-20T08:49:26.276Z,1012.19
2019-04-20T08:51:19.499Z,1012.23
2019-04-20T08:52:44.589Z,1012.21
2019-04-20T08:54:16.787Z,1012.17
2019-04-20T08:55:19.658Z,1012.21
2019-04-20T08:56:15.894Z,1012.18
2019-04-20T08:57:02.100Z,1012.13
2019-04-20T08:57:59.884Z,1012.18
2019-04-20T08:58:59.627Z,1012.11
2019-04-20T09:00:01.425Z,1012.20
2019-04-20T09:01:03.539Z,1012.15
2019-04-20T09:02:05.124Z,1012.18
2019-04-20T09:03:09.420Z,1012.14
2019-04-20T09:04:06.592Z,1012.19
2019-04-20T09:05:06.667Z,1012.20
2019-04-20T09:06:09.355Z,1012.11
2019-04-20T09:07:10.175Z,1012.14
2019-04-20T09:08:09.338Z,1012.17
2019-04-20T09:09:22.491Z,1012.13
2019-04-20T09:10:25.380Z,1012.13
2019-04-20T09:11:14.297Z,1012.13
2019-04-20T09:12:17.908Z,1012.14
2019-04-20T09:13:11.609Z,1012.12
2019-04-20T09:14:02.532Z,1012.15
2019-04-20T09:14:59.527Z,1012.12
2019-04-20T09:15:59.856Z,1012.10
2019-04-20T09:17:02.899Z,1012.15
2019-04-20T09:18:03.783Z,1012.10
2019-04-20T09:19:07.241Z,1012.08
2019-04-20T09:20:09.643Z,1012.10
2019-04-20T09:21:07.721Z,1012.11
2019-04-20T09:22:12.161Z,1012.07
2019-04-20T09:23:18.588Z,1012.07
2019-04-20T09:24:21.746Z,1012.11
2019-04-20T09:25:37.903Z,1012.00
2019-04-20T09:26:15.013Z,1012.01
2019-04-20T09:27:08.699Z,1012.07
2019-04-20T09:28:11.748Z,1012.04
2019-04-20T09:29:12.634Z,1012.05
2019-04-20T09:30:09.389Z,1012.02
2019-04-20T09:31:15.325Z,1012.05
2019-04-20T09:32:16.950Z,1012.00
2019-04-20T09:33:14.624Z,1012.02
2019-04-20T09:34:42.783Z,1011.98
2019-04-20T09:35:20.660Z,1012.00
2019-04-20T09:36:14.310Z,1011.94
2019-04-20T09:37:21.767Z,1012.04
2019-04-20T09:38:15.601Z,1011.95
2019-04-20T09:39:12.814Z,1011.97
2019-04-20T09:40:15.536Z,1011.93
2019-04-20T09:41:24.630Z,1011.94
2019-04-20T09:42:01.293Z,1011.95
2019-04-20T09:42:58.226Z,1011.91
2019-04-20T09:43:58.383Z,1011.96
2019-04-20T09:45:02.471Z,1011.90
2019-04-20T09:46:03.599Z,1011.92
2019-04-20T09:47:02.981Z,1012.01
2019-04-20T09:48:00.570Z,1011.95
2019-04-20T09:49:02.737Z,1011.90
2019-04-20T09:50:16.845Z,1011.89
2019-04-20T09:51:20.343Z,1011.89
2019-04-20T09:52:13.345Z,1012.01
2019-04-20T09:53:14.241Z,1011.89
2019-04-20T09:54:18.903Z,1011.90
2019-04-20T09:55:14.647Z,1011.88
2019-04-20T09:56:15.561Z,1011.87
2019-04-20T09:57:20.518Z,1011.93
2019-04-20T09:58:12.691Z,1011.88
2019-04-20T09:59:19.196Z,1011.84
2019-04-20T10:00:16.869Z,1011.84
2019-04-20T10:01:13.163Z,1011.86
2019-04-20T10:02:06.662Z,1011.94
2019-04-20T10:03:00.217Z,1011.89
2019-04-20T10:03:59.015Z,1011.87
2019-04-20T10:04:58.032Z,1011.87
2019-04-20T10:05:59.230Z,1011.91
2019-04-20T10:07:01.787Z,1011.84
2019-04-20T10:08:04.352Z,1011.84
2019-04-20T10:09:01.916Z,1011.81
2019-04-20T10:09:58.164Z,1011.86
2019-04-20T10:10:59.336Z,1011.83
2019-04-20T10:11:57.938Z,1011.79
2019-04-20T10:12:58.380Z,1011.84
2019-04-20T10:13:58.787Z,1011.79
2019-04-20T10:15:04.177Z,1011.79
2019-04-20T10:15:59.689Z,1011.82
2019-04-20T10:16:59.958Z,1011.80
2019-04-20T10:17:57.911Z,1011.77
2019-04-20T10:18:58.782Z,1011.77
2019-04-20T10:20:01.388Z,1011.77
2019-04-20T10:20:59.882Z,1011.76
2019-04-20T10:21:58.367Z,1011.82
2019-04-20T10:22:58.446Z,1011.76
2019-04-20T10:23:58.952Z,1011.76
2019-04-20T10:24:57.818Z,1011.80
2019-04-20T10:25:58.559Z,1011.75
2019-04-20T10:26:58.781Z,1011.74
2019-04-20T10:27:57.857Z,1011.68
2019-04-20T10:28:57.755Z,1011.67
2019-04-20T10:30:00.703Z,1011.70
2019-04-20T10:30:58.963Z,1011.65
2019-04-20T10:32:00.674Z,1011.66
2019-04-20T10:32:57.704Z,1011.70
2019-04-20T10:33:57.695Z,1011.67
2019-04-20T10:34:58.836Z,1011.62
2019-04-20T10:35:57.755Z,1011.55
2019-04-20T10:36:57.665Z,1011.55
2019-04-20T10:37:57.711Z,1011.64
2019-04-20T10:38:58.221Z,1011.59
2019-04-20T10:39:58.533Z,1011.58
2019-04-20T10:41:08.225Z,1011.58
2019-04-20T10:42:01.249Z,1011.55
2019-04-20T10:43:01.075Z,1011.54
2019-04-20T10:43:58.670Z,1011.56
2019-04-20T10:44:59.442Z,1011.57
2019-04-20T10:45:57.571Z,1011.58
2019-04-20T10:46:58.677Z,1011.51
2019-04-20T10:47:57.551Z,1011.50
2019-04-20T10:49:02.817Z,1011.50
2019-04-20T10:49:58.894Z,1011.50
2019-04-20T10:50:58.855Z,1011.57
2019-04-20T10:51:57.798Z,1011.54
2019-04-20T10:52:59.618Z,1011.49
2019-04-20T10:53:58.334Z,1011.52
2019-04-20T10:54:58.639Z,1011.51
2019-04-20T10:55:57.796Z,1011.55
2019-04-20T10:56:57.489Z,1011.55
2019-04-20T10:57:59.640Z,1011.51
2019-04-20T10:58:57.979Z,1011.47
2019-04-20T10:59:57.555Z,1011.58
2019-04-20T11:00:57.666Z,1011.46
2019-04-20T11:01:58.088Z,1011.43
2019-04-20T11:02:57.494Z,1011.46
2019-04-20T11:03:58.673Z,1011.46
2019-04-20T11:04:57.373Z,1011.38
2019-04-20T11:05:58.510Z,1011.39
2019-04-20T11:06:58.646Z,1011.47
2019-04-20T11:07:58.710Z,1011.49
2019-04-20T11:08:58.522Z,1011.44
2019-04-20T11:10:07.978Z,1011.41
2019-04-20T11:11:09.328Z,1011.45
2019-04-20T11:11:58.750Z,1011.40
2019-04-20T11:12:57.360Z,1011.42
2019-04-20T11:14:06.277Z,1011.41
2019-04-20T11:14:59.099Z,1011.34
2019-04-20T11:15:57.311Z,1011.40
2019-04-20T11:16:58.426Z,1011.39
2019-04-20T11:17:59.640Z,1011.46
2019-04-20T11:18:57.769Z,1011.42
2019-04-20T11:19:59.099Z,1011.42
2019-04-20T11:20:57.498Z,1011.37
2019-04-20T11:21:58.575Z,1011.39
2019-04-20T11:22:58.138Z,1011.31
2019-04-20T11:23:58.411Z,1011.28
2019-04-20T11:24:58.895Z,1011.33
2019-04-20T11:25:58.059Z,1011.25
2019-04-20T11:26:58.338Z,1011.21
2019-04-20T11:27:58.433Z,1011.25
2019-04-20T11:28:57.979Z,1011.29
2019-04-20T11:29:58.214Z,1011.28
2019-04-20T11:30:58.528Z,1011.30
2019-04-20T11:31:58.148Z,1011.17
2019-04-20T11:32:58.078Z,1011.25
2019-04-20T11:33:58.256Z,1011.20
2019-04-20T11:35:01.042Z,1011.29
2019-04-20T11:35:59.128Z,1011.20
2019-04-20T11:36:59.156Z,1011.19
2019-04-20T11:37:57.457Z,1011.20
2019-04-20T11:38:57.030Z,1011.18
2019-04-20T11:39:57.117Z,1011.14
2019-04-20T11:41:09.911Z,1011.15
2019-04-20T11:41:59.393Z,1011.01
2019-04-20T11:42:57.518Z,1011.12
2019-04-20T11:43:57.843Z,1011.00
2019-04-20T11:44:57.142Z,1011.06
2019-04-20T11:45:57.008Z,1011.03
2019-04-20T11:46:56.937Z,1011.08
2019-04-20T11:47:57.812Z,1011.04
2019-04-20T11:48:57.264Z,1010.99
2019-04-20T11:49:57.582Z,1010.89
2019-04-20T11:50:57.930Z,1010.88
2019-04-20T11:51:57.354Z,1010.96
2019-04-20T11:52:57.268Z,1010.93
2019-04-20T11:53:56.895Z,1010.90
2019-04-20T11:54:58.048Z,1010.91
2019-04-20T11:55:58.374Z,1010.90
2019-04-20T11:56:57.393Z,1010.85
2019-04-20T11:57:58.277Z,1010.87
2019-04-20T11:58:56.866Z,1010.86
2019-04-20T11:59:57.154Z,1010.94
2019-04-20T12:01:05.087Z,1010.92
2019-04-20T12:02:02.703Z,1010.90
2019-04-20T12:03:00.540Z,1010.95
2019-04-20T12:04:05.244Z,1010.89
2019-04-20T12:05:10.149Z,1010.82
2019-04-20T12:06:01.082Z,1010.72
2019-04-20T12:06:59.045Z,1010.81
2019-04-20T12:07:56.830Z,1010.77
2019-04-20T12:08:57.021Z,1010.78
2019-04-20T12:10:04.388Z,1010.79
2019-04-20T12:11:01.680Z,1010.83
2019-04-20T12:12:10.210Z,1010.79
2019-04-20T12:12:57.702Z,1010.77
2019-04-20T12:13:56.649Z,1010.79
2019-04-20T12:14:56.796Z,1010.79
2019-04-20T12:15:57.388Z,1010.82
2019-04-20T12:16:57.578Z,1010.74
2019-04-20T12:17:57.821Z,1010.77
2019-04-20T12:18:56.840Z,1010.74
2019-04-20T12:19:59.854Z,1010.75
2019-04-20T12:20:56.794Z,1010.76
2019-04-20T12:21:57.737Z,1010.67
2019-04-20T12:22:58.045Z,1010.68
2019-04-20T12:23:56.546Z,1010.70
2019-04-20T12:24:56.534Z,1010.72
2019-04-20T12:25:56.524Z,1010.65